Time;durP1;ratioP1;P1;durP2;ratioP2;P2;SDS_P1;SDS_P2;PMS_P1;PMS_P2;Temp;Humidity;BMP_temperature;BMP_pressure;BME280_temperature;BME280_humidity;BME280_pressure;Samples;Min_cycle;Max_cycle;Signal;HPM_P1;HPM_P2
2022/11/24 00:01:41;;;;;;;4.22;1.40;;;;;;;;;;5036560;28;20044;-76
2022/11/24 00:04:07;;;;;;;4.90;1.50;;;;;;;;;;5040383;28;20053;-73
2022/11/24 00:06:34;;;;;;;3.20;1.60;;;;;;;;;;5039301;28;20122;-71
2022/11/24 00:09:02;;;;;;;3.83;1.52;;;;;;;;;;5035572;28;20052;-73
2022/11/24 00:11:30;;;;;;;5.75;1.45;;;;;;;;;;5040006;28;20066;-70
2022/11/24 00:13:57;;;;;;;4.95;1.50;;;;;;;;;;5038699;28;20053;-72
2022/11/24 00:16:25;;;;;;;3.80;1.50;;;;;;;;;;5033024;28;20049;-71
2022/11/24 00:18:52;;;;;;;3.28;1.40;;;;;;;;;;5037666;28;20052;-72
2022/11/24 00:21:20;;;;;;;4.60;1.90;;;;;;;;;;5038942;28;20095;-74
2022/11/24 00:23:47;;;;;;;4.80;1.25;;;;;;;;;;5041497;28;20149;-70
2022/11/24 00:26:15;;;;;;;4.60;1.25;;;;;;;;;;5037915;28;20055;-72
2022/11/24 00:28:43;;;;;;;5.45;1.30;;;;;;;;;;5034819;28;20127;-72
2022/11/24 00:31:23;;;;;;;4.00;1.27;;;;;;;;;;5034625;28;20607;-73
2022/11/24 00:33:52;;;;;;;3.75;1.27;;;;;;;;;;5037402;28;20048;-74
2022/11/24 00:36:20;;;;;;;3.22;1.35;;;;;;;;;;5032138;28;20049;-74
2022/11/24 00:38:46;;;;;;;3.63;1.40;;;;;;;;;;5039962;28;20501;-72
2022/11/24 00:41:12;;;;;;;2.97;1.30;;;;;;;;;;5037661;28;20057;-73
2022/11/24 00:43:38;;;;;;;6.10;1.63;;;;;;;;;;5036836;28;20071;-72
2022/11/24 00:46:05;;;;;;;3.53;1.52;;;;;;;;;;5036988;28;20060;-71
2022/11/24 00:48:30;;;;;;;3.13;1.25;;;;;;;;;;5035444;28;20134;-72
2022/11/24 00:51:02;;;;;;;2.13;1.30;;;;;;;;;;5023851;28;20114;-72
2022/11/24 00:53:28;;;;;;;3.03;1.55;;;;;;;;;;5023029;28;20081;-70
2022/11/24 00:55:55;;;;;;;2.42;1.27;;;;;;;;;;5033934;28;20117;-71
2022/11/24 00:58:23;;;;;;;3.08;1.40;;;;;;;;;;5036361;28;20052;-73
2022/11/24 01:00:50;;;;;;;3.47;1.50;;;;;;;;;;5035718;28;20064;-73
2022/11/24 01:03:17;;;;;;;5.57;1.75;;;;;;;;;;5034184;28;20044;-73
2022/11/24 01:05:44;;;;;;;4.30;1.40;;;;;;;;;;5039463;28;20053;-72
2022/11/24 01:08:10;;;;;;;2.75;1.50;;;;;;;;;;5034180;28;20182;-71
2022/11/24 01:10:36;;;;;;;6.68;1.55;;;;;;;;;;5039147;28;20060;-73
2022/11/24 01:13:03;;;;;;;2.97;1.45;;;;;;;;;;5039507;28;20755;-71
2022/11/24 01:15:29;;;;;;;1.85;1.27;;;;;;;;;;5040749;28;20052;-72
2022/11/24 01:17:55;;;;;;;6.63;1.40;;;;;;;;;;5033787;28;20135;-72
2022/11/24 01:20:22;;;;;;;3.50;1.65;;;;;;;;;;5037012;28;20637;-70
2022/11/24 01:22:48;;;;;;;3.75;1.80;;;;;;;;;;5035764;28;20051;-72
2022/11/24 01:25:15;;;;;;;3.22;1.42;;;;;;;;;;5036748;28;20514;-73
2022/11/24 01:27:41;;;;;;;5.32;1.40;;;;;;;;;;5036359;28;20048;-72
2022/11/24 01:30:08;;;;;;;2.58;1.38;;;;;;;;;;5032306;28;20158;-72
2022/11/24 01:32:35;;;;;;;3.60;1.45;;;;;;;;;;5029495;28;20088;-75
2022/11/24 01:35:05;;;;;;;3.28;1.60;;;;;;;;;;5033663;28;20053;-74
2022/11/24 01:37:31;;;;;;;2.58;1.40;;;;;;;;;;5030836;28;20045;-69
2022/11/24 01:39:57;;;;;;;4.88;1.70;;;;;;;;;;5026901;28;20045;-73
2022/11/24 01:42:23;;;;;;;5.70;1.70;;;;;;;;;;5036729;28;20140;-72
2022/11/24 01:45:27;;;;;;;6.03;1.70;;;;;;;;;;5031571;28;20056;-72
2022/11/24 01:47:53;;;;;;;3.80;1.75;;;;;;;;;;5030484;28;20041;-71
2022/11/24 01:50:19;;;;;;;2.97;1.45;;;;;;;;;;5031949;28;20164;-73
2022/11/24 01:52:52;;;;;;;2.42;1.80;;;;;;;;;;5038253;28;20052;-70
2022/11/24 01:55:26;;;;;;;3.63;1.67;;;;;;;;;;5033030;28;20716;-71
2022/11/24 01:58:06;;;;;;;2.60;1.80;;;;;;;;;;5032101;28;20111;-72
2022/11/24 02:00:35;;;;;;;5.53;1.80;;;;;;;;;;5031660;28;20049;-71
2022/11/24 02:03:01;;;;;;;4.85;1.50;;;;;;;;;;5031042;28;20072;-71
2022/11/24 02:05:56;;;;;;;4.68;1.40;;;;;;;;;;5031299;28;20055;-71
2022/11/24 02:08:36;;;;;;;3.30;1.45;;;;;;;;;;5023613;28;20828;-71
2022/11/24 02:11:04;;;;;;;4.38;1.40;;;;;;;;;;5021560;28;20065;-73
2022/11/24 02:13:34;;;;;;;2.80;1.52;;;;;;;;;;5036017;28;20048;-71
2022/11/24 02:16:01;;;;;;;3.08;1.42;;;;;;;;;;5030302;28;20053;-71
2022/11/24 02:18:28;;;;;;;3.50;1.45;;;;;;;;;;5030208;28;20048;-70
2022/11/24 02:20:55;;;;;;;2.33;1.42;;;;;;;;;;5033966;28;20056;-70
2022/11/24 02:23:36;;;;;;;3.05;1.40;;;;;;;;;;5034423;28;20048;-71
2022/11/24 02:26:02;;;;;;;4.03;1.30;;;;;;;;;;5037164;28;20056;-72
2022/11/24 02:28:29;;;;;;;2.13;1.00;;;;;;;;;;5033914;28;20053;-70
2022/11/24 02:30:56;;;;;;;3.08;1.30;;;;;;;;;;5035784;28;20672;-70
2022/11/24 02:33:24;;;;;;;3.92;1.27;;;;;;;;;;5033589;28;20048;-70
2022/11/24 02:35:51;;;;;;;5.15;1.20;;;;;;;;;;5032281;28;20053;-72
2022/11/24 02:38:16;;;;;;;1.73;1.30;;;;;;;;;;5031360;28;20055;-73
2022/11/24 02:40:46;;;;;;;3.88;1.33;;;;;;;;;;5033373;28;20407;-72
2022/11/24 02:43:19;;;;;;;1.90;1.30;;;;;;;;;;5037862;28;20648;-71
2022/11/24 02:45:46;;;;;;;2.17;1.00;;;;;;;;;;5034340;28;20044;-72
2022/11/24 02:48:14;;;;;;;2.63;1.30;;;;;;;;;;5034914;28;20048;-73
2022/11/24 02:50:40;;;;;;;3.00;1.30;;;;;;;;;;5035234;28;20057;-71
2022/11/24 02:53:06;;;;;;;1.50;1.08;;;;;;;;;;5031477;28;20079;-72
2022/11/24 02:55:32;;;;;;;1.75;1.10;;;;;;;;;;5036098;28;20765;-74
2022/11/24 02:57:57;;;;;;;3.47;1.30;;;;;;;;;;5031359;28;20837;-70
2022/11/24 03:00:24;;;;;;;2.85;1.30;;;;;;;;;;5031387;28;20045;-73
2022/11/24 03:02:49;;;;;;;3.75;1.40;;;;;;;;;;5025046;28;20421;-72
2022/11/24 03:05:16;;;;;;;2.03;1.33;;;;;;;;;;5037488;28;20048;-72
2022/11/24 03:07:41;;;;;;;2.47;1.35;;;;;;;;;;5033543;28;20107;-69
2022/11/24 03:10:08;;;;;;;3.15;1.20;;;;;;;;;;5028581;28;20154;-72
2022/11/24 03:12:33;;;;;;;2.92;1.40;;;;;;;;;;5033513;28;20052;-69
2022/11/24 03:15:00;;;;;;;4.45;1.20;;;;;;;;;;5036978;28;20053;-70
2022/11/24 03:17:25;;;;;;;1.92;1.10;;;;;;;;;;5028435;28;20049;-73
2022/11/24 03:19:51;;;;;;;2.95;1.40;;;;;;;;;;5036124;28;20143;-71
2022/11/24 03:22:17;;;;;;;2.10;1.15;;;;;;;;;;5034522;28;20440;-70
2022/11/24 03:24:43;;;;;;;2.13;1.02;;;;;;;;;;5035676;28;20048;-72
2022/11/24 03:27:09;;;;;;;2.20;1.08;;;;;;;;;;5031926;28;20052;-72
2022/11/24 03:29:35;;;;;;;2.83;1.20;;;;;;;;;;5041224;28;20057;-71
2022/11/24 03:32:01;;;;;;;3.60;1.13;;;;;;;;;;5019010;28;20110;-72
2022/11/24 03:34:27;;;;;;;1.70;1.00;;;;;;;;;;5038648;28;20049;-71
2022/11/24 03:36:53;;;;;;;2.47;1.15;;;;;;;;;;5023001;28;20076;-71
2022/11/24 03:39:19;;;;;;;2.80;1.15;;;;;;;;;;5030602;28;20044;-71
2022/11/24 03:41:45;;;;;;;1.80;1.10;;;;;;;;;;5041256;28;20041;-72
2022/11/24 03:44:11;;;;;;;2.28;1.17;;;;;;;;;;5042660;28;20086;-73
2022/11/24 03:46:36;;;;;;;1.58;1.05;;;;;;;;;;5024480;28;20049;-72
2022/11/24 03:49:02;;;;;;;2.50;1.48;;;;;;;;;;5034102;28;20072;-73
2022/11/24 03:51:28;;;;;;;2.97;1.60;;;;;;;;;;5037173;28;20187;-71
2022/11/24 03:53:54;;;;;;;1.98;1.33;;;;;;;;;;5038210;28;20102;-72
2022/11/24 03:56:20;;;;;;;2.25;1.08;;;;;;;;;;5035424;28;20044;-72
2022/11/24 03:58:46;;;;;;;1.67;1.10;;;;;;;;;;5035077;28;20079;-73
2022/11/24 04:01:12;;;;;;;1.63;1.13;;;;;;;;;;5034899;28;20099;-72
2022/11/24 04:03:38;;;;;;;3.17;1.38;;;;;;;;;;5035511;28;20115;-71
2022/11/24 04:06:03;;;;;;;3.60;1.27;;;;;;;;;;5034364;28;20061;-71
2022/11/24 04:08:30;;;;;;;3.65;1.40;;;;;;;;;;5032399;28;20056;-72
2022/11/24 04:10:55;;;;;;;3.30;1.40;;;;;;;;;;5035128;28;20056;-71
2022/11/24 04:13:23;;;;;;;2.80;1.30;;;;;;;;;;5041846;28;20049;-70
2022/11/24 04:15:50;;;;;;;2.65;1.40;;;;;;;;;;5033529;28;20663;-70
2022/11/24 04:18:17;;;;;;;3.38;1.30;;;;;;;;;;5032918;28;20064;-72
2022/11/24 04:20:42;;;;;;;2.30;1.25;;;;;;;;;;5038876;28;20137;-71
2022/11/24 04:23:09;;;;;;;2.03;1.52;;;;;;;;;;5042314;28;20979;-71
2022/11/24 04:25:35;;;;;;;3.40;1.70;;;;;;;;;;5038109;28;20059;-70
2022/11/24 04:28:02;;;;;;;1.85;1.20;;;;;;;;;;5037377;28;20053;-72
2022/11/24 04:30:28;;;;;;;3.50;1.30;;;;;;;;;;5034326;28;20048;-70
2022/11/24 04:32:55;;;;;;;2.47;1.20;;;;;;;;;;5040647;28;20048;-71
2022/11/24 04:35:21;;;;;;;5.40;1.30;;;;;;;;;;5032686;28;20049;-72
2022/11/24 04:37:47;;;;;;;3.38;1.30;;;;;;;;;;5037946;28;20041;-72
2022/11/24 04:40:13;;;;;;;2.38;1.20;;;;;;;;;;5035268;28;20037;-72
2022/11/24 04:42:40;;;;;;;2.38;1.25;;;;;;;;;;5041176;28;20052;-71
2022/11/24 04:45:06;;;;;;;1.52;1.05;;;;;;;;;;5017440;28;20263;-70
2022/11/24 04:47:33;;;;;;;4.20;1.45;;;;;;;;;;5039012;28;20128;-70
2022/11/24 04:49:59;;;;;;;3.92;1.15;;;;;;;;;;5029931;28;20085;-71
2022/11/24 04:52:25;;;;;;;1.77;1.20;;;;;;;;;;5043618;28;20068;-71
2022/11/24 04:54:51;;;;;;;4.65;1.42;;;;;;;;;;5036325;28;20048;-70
2022/11/24 04:57:23;;;;;;;3.03;1.33;;;;;;;;;;5036190;28;20044;-71
2022/11/24 04:59:51;;;;;;;3.42;1.20;;;;;;;;;;5029374;28;20056;-71
2022/11/24 05:02:18;;;;;;;1.52;1.10;;;;;;;;;;5030579;28;20649;-71
2022/11/24 05:04:44;;;;;;;1.80;1.30;;;;;;;;;;5035677;28;20053;-73
2022/11/24 05:07:14;;;;;;;2.22;1.10;;;;;;;;;;5034183;28;20057;-70
2022/11/24 05:12:29;;;;;;;3.22;1.50;;;;;;;;;;5038363;28;20573;-74
2022/11/24 05:14:57;;;;;;;2.80;1.30;;;;;;;;;;5032926;28;20455;-70
2022/11/24 05:17:24;;;;;;;2.78;1.50;;;;;;;;;;5035578;28;20855;-74
2022/11/24 05:19:49;;;;;;;5.10;1.50;;;;;;;;;;5032265;28;20143;-72
2022/11/24 05:22:16;;;;;;;2.92;1.40;;;;;;;;;;5037088;28;20059;-71
2022/11/24 05:24:41;;;;;;;3.33;1.55;;;;;;;;;;5038069;28;20053;-71
2022/11/24 05:27:07;;;;;;;3.67;1.50;;;;;;;;;;5035773;28;20052;-70
2022/11/24 05:29:33;;;;;;;4.35;1.77;;;;;;;;;;5029723;28;20048;-70
2022/11/24 05:31:59;;;;;;;3.42;1.65;;;;;;;;;;5029483;28;20146;-73
2022/11/24 05:34:25;;;;;;;2.95;1.80;;;;;;;;;;5026055;28;20460;-72
2022/11/24 05:36:51;;;;;;;3.50;1.90;;;;;;;;;;5037824;28;20049;-72
2022/11/24 05:39:18;;;;;;;5.82;1.60;;;;;;;;;;5027833;28;20055;-71
2022/11/24 05:41:44;;;;;;;2.30;1.55;;;;;;;;;;5022420;28;20063;-73
2022/11/24 05:44:10;;;;;;;4.07;1.80;;;;;;;;;;5038002;28;20057;-70
2022/11/24 05:46:36;;;;;;;2.72;1.60;;;;;;;;;;5032121;28;20536;-71
2022/11/24 05:49:02;;;;;;;4.38;1.55;;;;;;;;;;5033421;28;20045;-70
2022/11/24 05:51:29;;;;;;;5.45;2.00;;;;;;;;;;5028379;28;20052;-71
2022/11/24 05:53:55;;;;;;;3.90;1.80;;;;;;;;;;5044345;28;20037;-72
2022/11/24 05:56:21;;;;;;;3.72;1.88;;;;;;;;;;5036663;28;20835;-74
2022/11/24 05:58:47;;;;;;;3.97;1.95;;;;;;;;;;5034409;28;20064;-73
2022/11/24 06:01:13;;;;;;;5.15;2.03;;;;;;;;;;5032325;28;20079;-70
2022/11/24 06:03:39;;;;;;;3.72;1.90;;;;;;;;;;5030373;28;20048;-70
2022/11/24 06:06:05;;;;;;;5.70;2.00;;;;;;;;;;5038544;28;20480;-68
2022/11/24 06:08:31;;;;;;;5.28;1.90;;;;;;;;;;5015686;28;20066;-70
2022/11/24 06:11:19;;;;;;;4.65;2.33;;;;;;;;;;5026047;28;20060;-71
2022/11/24 06:13:47;;;;;;;3.72;2.10;;;;;;;;;;5038410;28;20626;-71
2022/11/24 06:16:13;;;;;;;8.45;2.38;;;;;;;;;;5034745;28;20130;-71
2022/11/24 06:18:40;;;;;;;7.53;2.42;;;;;;;;;;5033977;28;21119;-71
2022/11/24 06:21:06;;;;;;;8.85;2.53;;;;;;;;;;5029940;28;20048;-73
2022/11/24 06:23:32;;;;;;;3.40;1.90;;;;;;;;;;5031235;28;20536;-72
2022/11/24 06:25:59;;;;;;;3.70;2.00;;;;;;;;;;5029942;28;20068;-72
2022/11/24 06:28:26;;;;;;;6.65;2.38;;;;;;;;;;5037247;28;20099;-74
2022/11/24 06:30:52;;;;;;;3.70;2.22;;;;;;;;;;5031985;28;20213;-71
2022/11/24 06:33:19;;;;;;;7.57;2.35;;;;;;;;;;5037353;28;20163;-70
2022/11/24 06:35:45;;;;;;;10.02;2.67;;;;;;;;;;5032961;28;20048;-73
2022/11/24 06:38:11;;;;;;;5.10;2.25;;;;;;;;;;5028955;28;20515;-73
2022/11/24 06:40:37;;;;;;;10.93;4.13;;;;;;;;;;5029701;28;20057;-72
2022/11/24 06:43:03;;;;;;;5.57;2.97;;;;;;;;;;5027391;28;20056;-73
2022/11/24 06:45:29;;;;;;;4.32;2.70;;;;;;;;;;5029540;28;20076;-74
2022/11/24 06:47:55;;;;;;;6.05;2.80;;;;;;;;;;5030213;28;20136;-69
2022/11/24 06:50:22;;;;;;;4.25;2.70;;;;;;;;;;5033891;28;20064;-71
2022/11/24 06:52:48;;;;;;;7.95;2.92;;;;;;;;;;5029428;28;20041;-74
2022/11/24 06:55:14;;;;;;;6.30;2.65;;;;;;;;;;5033021;28;20604;-73
2022/11/24 06:57:39;;;;;;;5.65;2.60;;;;;;;;;;5036580;28;20689;-71
2022/11/24 07:00:06;;;;;;;15.40;2.40;;;;;;;;;;5035650;28;20152;-70
2022/11/24 07:02:33;;;;;;;5.95;2.83;;;;;;;;;;5026192;28;20128;-72
2022/11/24 07:04:59;;;;;;;6.50;2.53;;;;;;;;;;5028157;28;20059;-71
2022/11/24 07:07:25;;;;;;;7.20;2.83;;;;;;;;;;5030236;28;20044;-73
2022/11/24 07:09:51;;;;;;;7.55;2.90;;;;;;;;;;5032135;28;20048;-73
2022/11/24 07:12:16;;;;;;;12.60;3.63;;;;;;;;;;5030695;28;20061;-74
2022/11/24 07:14:42;;;;;;;8.15;3.13;;;;;;;;;;5029961;28;20052;-73
2022/11/24 07:17:08;;;;;;;11.65;3.08;;;;;;;;;;5035179;28;20056;-72
2022/11/24 07:19:35;;;;;;;7.35;3.30;;;;;;;;;;5033917;28;20812;-76
2022/11/24 07:22:01;;;;;;;9.35;2.90;;;;;;;;;;5024116;28;20051;-73
2022/11/24 07:24:27;;;;;;;11.00;2.40;;;;;;;;;;5034063;28;20145;-70
2022/11/24 07:26:53;;;;;;;5.40;2.35;;;;;;;;;;5033890;28;20564;-75
2022/11/24 07:29:19;;;;;;;9.45;2.42;;;;;;;;;;5033470;28;20121;-75
2022/11/24 07:31:45;;;;;;;5.03;2.17;;;;;;;;;;5031102;28;20053;-73
2022/11/24 07:34:13;;;;;;;4.53;2.20;;;;;;;;;;5035479;28;20586;-71
2022/11/24 07:36:39;;;;;;;9.90;2.78;;;;;;;;;;5031717;28;20114;-72
2022/11/24 07:39:06;;;;;;;4.97;2.33;;;;;;;;;;5033827;28;20057;-72
2022/11/24 07:41:31;;;;;;;13.45;2.50;;;;;;;;;;5031467;28;20548;-72
2022/11/24 07:43:57;;;;;;;9.48;2.00;;;;;;;;;;5032985;28;20087;-73
2022/11/24 07:46:23;;;;;;;6.10;2.00;;;;;;;;;;5034107;28;20409;-73
2022/11/24 07:48:49;;;;;;;7.15;2.15;;;;;;;;;;5023411;28;20057;-76
2022/11/24 07:51:15;;;;;;;5.07;1.90;;;;;;;;;;5030669;28;20111;-72
2022/11/24 07:53:42;;;;;;;9.77;2.30;;;;;;;;;;5023447;28;20049;-72
2022/11/24 07:56:08;;;;;;;7.15;2.10;;;;;;;;;;5028857;28;20091;-71
2022/11/24 07:58:36;;;;;;;6.43;2.83;;;;;;;;;;5034316;28;20431;-73
2022/11/24 08:01:15;;;;;;;11.18;2.78;;;;;;;;;;5030590;28;20052;-68
2022/11/24 08:03:42;;;;;;;12.35;2.60;;;;;;;;;;5029275;28;20061;-72
2022/11/24 08:06:09;;;;;;;7.90;2.70;;;;;;;;;;5027155;28;20050;-71
2022/11/24 08:08:35;;;;;;;7.05;2.90;;;;;;;;;;5027934;28;20696;-72
2022/11/24 08:11:09;;;;;;;10.45;3.58;;;;;;;;;;5032328;28;20057;-73
2022/11/24 08:13:36;;;;;;;7.97;3.38;;;;;;;;;;5036765;28;20063;-73
2022/11/24 08:16:13;;;;;;;9.07;3.80;;;;;;;;;;5037658;28;20044;-68
2022/11/24 08:18:40;;;;;;;11.60;3.95;;;;;;;;;;5031279;28;20163;-73
2022/11/24 08:21:08;;;;;;;9.90;3.83;;;;;;;;;;5036726;28;20058;-71
2022/11/24 08:23:34;;;;;;;14.80;3.58;;;;;;;;;;5035123;28;20072;-70
2022/11/24 08:26:13;;;;;;;9.50;3.10;;;;;;;;;;5032091;28;20456;-72
2022/11/24 08:28:39;;;;;;;10.98;3.05;;;;;;;;;;5029247;28;20133;-71
2022/11/24 08:31:10;;;;;;;10.70;2.75;;;;;;;;;;5024177;28;20057;-71
2022/11/24 08:33:36;;;;;;;13.27;2.88;;;;;;;;;;5027141;28;20982;-70
2022/11/24 08:36:07;;;;;;;10.30;3.13;;;;;;;;;;5034326;28;20079;-70
2022/11/24 08:38:33;;;;;;;7.97;2.88;;;;;;;;;;5032585;28;20699;-71
2022/11/24 08:41:04;;;;;;;9.43;2.53;;;;;;;;;;5020648;28;20051;-73
2022/11/24 08:43:30;;;;;;;8.00;2.63;;;;;;;;;;5029698;28;20131;-69
2022/11/24 08:46:05;;;;;;;8.80;2.63;;;;;;;;;;5022585;28;20053;-72
2022/11/24 08:48:31;;;;;;;8.27;2.80;;;;;;;;;;5027174;28;20074;-71
2022/11/24 08:50:58;;;;;;;11.05;2.63;;;;;;;;;;5017553;28;20052;-69
2022/11/24 08:53:24;;;;;;;5.90;2.75;;;;;;;;;;5035199;28;20049;-69
2022/11/24 08:55:50;;;;;;;6.15;2.55;;;;;;;;;;5036667;28;20048;-71
2022/11/24 08:58:16;;;;;;;6.05;2.20;;;;;;;;;;5035686;28;20151;-70
2022/11/24 09:00:42;;;;;;;6.28;2.42;;;;;;;;;;5032609;28;20296;-70
2022/11/24 09:03:10;;;;;;;4.85;1.73;;;;;;;;;;5035722;28;20068;-71
2022/11/24 09:05:37;;;;;;;5.90;2.08;;;;;;;;;;5038749;28;20160;-70
2022/11/24 09:08:03;;;;;;;4.85;1.88;;;;;;;;;;5029277;28;20190;-71
2022/11/24 09:10:29;;;;;;;7.38;1.90;;;;;;;;;;5031564;28;20525;-71
2022/11/24 09:12:55;;;;;;;11.50;2.08;;;;;;;;;;5026482;28;20045;-72
2022/11/24 09:15:21;;;;;;;7.78;2.70;;;;;;;;;;5032236;28;20472;-71
2022/11/24 09:17:47;;;;;;;6.68;2.53;;;;;;;;;;5034892;28;20041;-71
2022/11/24 09:20:14;;;;;;;7.55;2.50;;;;;;;;;;5032206;28;20060;-71
2022/11/24 09:22:41;;;;;;;4.75;2.20;;;;;;;;;;5034384;28;20145;-71
2022/11/24 09:25:08;;;;;;;13.20;3.00;;;;;;;;;;5031357;28;20079;-73
2022/11/24 09:27:35;;;;;;;5.82;2.58;;;;;;;;;;5027937;28;20052;-72
2022/11/24 09:30:01;;;;;;;5.13;2.42;;;;;;;;;;5029178;28;20444;-73
2022/11/24 09:32:29;;;;;;;9.75;3.03;;;;;;;;;;5033410;28;20120;-69
2022/11/24 09:34:55;;;;;;;9.43;3.50;;;;;;;;;;5028121;28;20060;-69
2022/11/24 09:37:21;;;;;;;6.68;3.13;;;;;;;;;;5031852;28;20178;-70
2022/11/24 09:39:47;;;;;;;8.77;3.10;;;;;;;;;;5035158;28;20069;-71
2022/11/24 09:42:15;;;;;;;8.75;3.35;;;;;;;;;;5031234;28;20060;-72
2022/11/24 09:45:08;;;;;;;5.28;2.35;;;;;;;;;;5039380;28;20057;-76
2022/11/24 09:48:06;;;;;;;6.93;2.20;;;;;;;;;;5032089;28;20052;-75
2022/11/24 09:50:35;;;;;;;8.38;2.35;;;;;;;;;;5015615;28;20044;-74
2022/11/24 09:53:04;;;;;;;8.23;2.75;;;;;;;;;;5033560;28;20041;-72
2022/11/24 09:55:44;;;;;;;8.75;2.67;;;;;;;;;;5034811;28;20048;-74
2022/11/24 09:58:12;;;;;;;5.85;2.40;;;;;;;;;;5030662;28;20131;-71
2022/11/24 10:00:38;;;;;;;5.20;2.05;;;;;;;;;;5032281;28;20148;-72
2022/11/24 10:03:07;;;;;;;6.32;2.45;;;;;;;;;;5038749;28;20141;-73
2022/11/24 10:05:35;;;;;;;4.80;2.08;;;;;;;;;;5038991;28;20394;-72
2022/11/24 10:08:19;;;;;;;4.43;1.98;;;;;;;;;;5030411;28;20487;-71
2022/11/24 10:10:59;;;;;;;6.22;1.88;;;;;;;;;;5037068;28;20114;-73
2022/11/24 10:13:46;;;;;;;4.15;1.48;;;;;;;;;;5033039;28;20052;-73
2022/11/24 10:16:21;;;;;;;6.50;1.50;;;;;;;;;;5041708;28;20512;-73
2022/11/24 10:19:11;;;;;;;4.90;1.38;;;;;;;;;;5032864;28;20058;-73
2022/11/24 10:21:53;;;;;;;5.57;1.55;;;;;;;;;;5039232;28;20251;-71
2022/11/24 10:24:19;;;;;;;5.88;1.75;;;;;;;;;;5033866;28;20522;-74
2022/11/24 10:27:01;;;;;;;5.53;1.13;;;;;;;;;;5040660;28;20067;-74
2022/11/24 10:29:39;;;;;;;2.53;1.10;;;;;;;;;;5023584;28;20092;-75
2022/11/24 10:32:11;;;;;;;5.43;1.45;;;;;;;;;;5031817;28;20053;-73
2022/11/24 10:34:42;;;;;;;7.65;2.60;;;;;;;;;;5013022;28;20560;-76
2022/11/24 10:37:27;;;;;;;6.90;3.15;;;;;;;;;;5035726;28;20588;-75
2022/11/24 10:40:13;;;;;;;13.63;3.63;;;;;;;;;;5008309;28;20049;-73
2022/11/24 10:42:39;;;;;;;5.25;2.50;;;;;;;;;;5038096;28;20742;-75
2022/11/24 10:45:12;;;;;;;8.43;3.42;;;;;;;;;;5038844;28;20087;-75
2022/11/24 10:47:39;;;;;;;10.13;3.40;;;;;;;;;;5031666;28;20548;-75
2022/11/24 10:50:14;;;;;;;5.20;3.00;;;;;;;;;;5035250;28;20123;-74
2022/11/24 10:52:45;;;;;;;5.28;2.95;;;;;;;;;;5035398;28;20049;-76
2022/11/24 10:55:11;;;;;;;7.50;2.70;;;;;;;;;;5026505;28;20147;-73
2022/11/24 10:57:39;;;;;;;8.02;2.67;;;;;;;;;;5039152;28;21503;-73
2022/11/24 11:00:20;;;;;;;7.55;3.00;;;;;;;;;;5032821;28;20055;-73
2022/11/24 11:02:48;;;;;;;6.65;2.05;;;;;;;;;;5037088;28;20381;-74
2022/11/24 11:05:36;;;;;;;6.53;1.70;;;;;;;;;;5036872;28;20049;-71
2022/11/24 11:08:29;;;;;;;5.55;1.58;;;;;;;;;;5037417;28;20041;-76
2022/11/24 11:11:34;;;;;;;3.70;1.30;;;;;;;;;;5034100;28;20130;-74
2022/11/24 11:14:09;;;;;;;5.45;1.23;;;;;;;;;;4982242;28;20143;-76
2022/11/24 11:16:53;;;;;;;5.25;1.42;;;;;;;;;;4978798;28;20050;-78
2022/11/24 11:19:38;;;;;;;2.25;0.90;;;;;;;;;;4980183;28;20046;-72
2022/11/24 11:22:11;;;;;;;2.85;1.20;;;;;;;;;;4979830;28;20999;-73
2022/11/24 11:24:41;;;;;;;3.92;1.17;;;;;;;;;;4981581;28;20123;-72
2022/11/24 11:27:17;;;;;;;3.25;0.98;;;;;;;;;;4984065;28;20054;-73
2022/11/24 11:29:43;;;;;;;6.13;1.20;;;;;;;;;;4974474;28;20221;-72
2022/11/24 11:32:21;;;;;;;3.83;1.30;;;;;;;;;;4975492;28;20050;-74
2022/11/24 11:34:49;;;;;;;5.03;1.30;;;;;;;;;;4977348;28;20405;-73
2022/11/24 11:37:17;;;;;;;3.72;1.20;;;;;;;;;;4977803;28;20065;-74
2022/11/24 11:39:46;;;;;;;1.48;0.90;;;;;;;;;;4959437;28;20462;-74
2022/11/24 11:42:18;;;;;;;3.25;0.90;;;;;;;;;;4981989;28;20049;-76
2022/11/24 11:44:55;;;;;;;5.68;1.60;;;;;;;;;;5005625;28;20071;-82
2022/11/24 11:47:27;;;;;;;2.92;1.48;;;;;;;;;;5029565;28;20056;-76
2022/11/24 11:49:53;;;;;;;5.32;1.30;;;;;;;;;;5039949;28;20927;-73
2022/11/24 11:53:06;;;;;;;3.00;1.00;;;;;;;;;;5041157;28;20048;-75
2022/11/24 11:56:14;;;;;;;2.20;0.93;;;;;;;;;;5042694;28;20037;-80
2022/11/24 11:58:46;;;;;;;6.18;1.35;;;;;;;;;;5014556;28;20822;-72
2022/11/24 12:01:33;;;;;;;6.95;1.38;;;;;;;;;;5019655;28;20053;-74
2022/11/24 12:04:36;;;;;;;5.07;1.40;;;;;;;;;;5021772;28;20052;-76
2022/11/24 12:07:17;;;;;;;3.15;1.58;;;;;;;;;;5018547;28;20069;-78
2022/11/24 12:09:46;;;;;;;6.63;1.65;;;;;;;;;;5017886;28;20124;-74
2022/11/24 12:12:25;;;;;;;4.65;1.58;;;;;;;;;;5019826;28;20133;-81
2022/11/24 12:15:17;;;;;;;11.20;2.03;;;;;;;;;;5017320;28;20116;-73
2022/11/24 12:18:02;;;;;;;5.03;1.70;;;;;;;;;;5014915;28;20648;-70
2022/11/24 12:20:56;;;;;;;12.05;2.80;;;;;;;;;;5016774;28;20076;-73
2022/11/24 12:23:37;;;;;;;5.45;2.30;;;;;;;;;;5022831;28;20053;-76
2022/11/24 12:26:23;;;;;;;8.55;2.53;;;;;;;;;;5016155;28;20037;-81
2022/11/24 12:28:54;;;;;;;7.82;2.45;;;;;;;;;;5017643;28;20464;-78
2022/11/24 12:31:43;;;;;;;4.57;2.53;;;;;;;;;;5016816;28;20064;-74
2022/11/24 12:34:32;;;;;;;8.93;3.80;;;;;;;;;;5020272;28;20049;-72
2022/11/24 12:37:04;;;;;;;12.27;4.70;;;;;;;;;;5032393;28;20622;-73
2022/11/24 12:39:39;;;;;;;11.02;5.00;;;;;;;;;;5024112;28;20056;-73
2022/11/24 12:42:23;;;;;;;12.93;4.72;;;;;;;;;;5019771;28;20053;-73
2022/11/24 12:45:07;;;;;;;11.20;4.63;;;;;;;;;;5020980;28;20053;-75
2022/11/24 12:47:54;;;;;;;11.55;5.40;;;;;;;;;;5024749;28;21492;-73
2022/11/24 12:50:26;;;;;;;8.90;4.53;;;;;;;;;;5021556;28;20045;-73
2022/11/24 12:53:01;;;;;;;16.77;5.32;;;;;;;;;;5027191;28;20047;-74
2022/11/24 12:55:30;;;;;;;11.85;5.80;;;;;;;;;;5035521;28;20045;-80
2022/11/24 12:58:35;;;;;;;14.35;5.55;;;;;;;;;;5033609;28;20082;-77
2022/11/24 13:01:08;;;;;;;13.95;5.65;;;;;;;;;;4981931;28;20530;-81
2022/11/24 13:03:43;;;;;;;11.90;5.07;;;;;;;;;;4980091;28;20062;-78
2022/11/24 13:06:33;;;;;;;10.63;4.22;;;;;;;;;;4977134;28;20357;-80
2022/11/24 13:09:08;;;;;;;8.90;3.83;;;;;;;;;;4975679;28;20743;-78
2022/11/24 13:11:36;;;;;;;;;;;;;;;;;;4976694;28;20547;-80
2022/11/24 13:14:16;;;;;;;13.13;3.95;;;;;;;;;;4988736;28;19925;-77
2022/11/24 13:16:59;;;;;;;5.65;3.00;;;;;;;;;;4978505;28;21332;-77
2022/11/24 13:19:29;;;;;;;7.37;2.57;;;;;;;;;;4980344;28;20061;-74
2022/11/24 13:22:07;;;;;;;6.05;3.30;;;;;;;;;;4982470;28;20431;-74
2022/11/24 13:24:35;;;;;;;5.78;2.70;;;;;;;;;;4979354;28;20058;-71
2022/11/24 13:27:17;;;;;;;2.47;1.48;;;;;;;;;;4981255;28;20081;-78
2022/11/24 13:29:45;;;;;;;1.58;1.00;;;;;;;;;;4979234;28;21351;-84
2022/11/24 13:32:11;;;;;;;2.63;1.17;;;;;;;;;;4979949;28;21375;-74
2022/11/24 13:34:37;;;;;;;0.90;0.70;;;;;;;;;;4979729;28;20080;-79
2022/11/24 13:37:17;;;;;;;5.47;1.20;;;;;;;;;;4995451;28;20050;-76
2022/11/24 13:40:19;;;;;;;3.25;0.90;;;;;;;;;;5001095;28;20060;-77
2022/11/24 13:43:18;;;;;;;5.03;1.02;;;;;;;;;;4999633;28;20053;-77
2022/11/24 13:45:44;;;;;;;1.70;0.85;;;;;;;;;;4996951;28;20054;-79
2022/11/24 13:48:19;;;;;;;4.60;1.00;;;;;;;;;;5004595;28;20055;-76
2022/11/24 13:50:57;;;;;;;7.03;1.08;;;;;;;;;;4994522;28;20056;-72
2022/11/24 13:53:26;;;;;;;2.10;0.70;;;;;;;;;;4997669;28;20046;-72
2022/11/24 13:56:17;;;;;;;1.40;0.80;;;;;;;;;;5000684;28;20056;-77
2022/11/24 13:59:09;;;;;;;3.33;1.00;;;;;;;;;;4996784;28;20060;-73
2022/11/24 14:01:39;;;;;;;1.38;0.80;;;;;;;;;;4994132;28;20049;-74
2022/11/24 14:04:24;;;;;;;1.50;0.90;;;;;;;;;;4992232;28;20041;-71
2022/11/24 14:06:50;;;;;;;1.40;0.70;;;;;;;;;;4990329;28;20618;-70
2022/11/24 14:09:24;;;;;;;1.90;0.90;;;;;;;;;;4991880;28;20147;-76
2022/11/24 14:12:21;;;;;;;1.65;0.80;;;;;;;;;;4992128;28;20060;-71
2022/11/24 14:14:50;;;;;;;1.45;1.00;;;;;;;;;;4995745;28;20060;-71
2022/11/24 14:17:26;;;;;;;1.15;1.00;;;;;;;;;;4998014;28;20057;-74
2022/11/24 14:19:57;;;;;;;1.33;0.82;;;;;;;;;;5014314;28;20663;-76
2022/11/24 14:22:38;;;;;;;1.00;0.80;;;;;;;;;;5026920;28;20063;-72
2022/11/24 14:25:04;;;;;;;3.70;0.90;;;;;;;;;;5035099;28;20093;-76
2022/11/24 14:27:36;;;;;;;2.30;0.90;;;;;;;;;;5033166;28;20075;-73
2022/11/24 14:30:22;;;;;;;2.50;0.90;;;;;;;;;;5036577;28;20493;-77
2022/11/24 14:32:56;;;;;;;3.17;0.95;;;;;;;;;;5032989;28;20408;-73
2022/11/24 14:35:28;;;;;;;2.15;0.90;;;;;;;;;;5037443;28;20055;-71
2022/11/24 14:37:55;;;;;;;1.95;0.95;;;;;;;;;;5038665;28;20068;-73
2022/11/24 14:40:40;;;;;;;1.10;0.80;;;;;;;;;;5038957;28;20056;-74
2022/11/24 14:43:24;;;;;;;1.67;0.80;;;;;;;;;;5039485;28;20063;-83
2022/11/24 14:46:02;;;;;;;5.67;1.30;;;;;;;;;;5040170;28;20871;-72
2022/11/24 14:48:32;;;;;;;4.13;1.17;;;;;;;;;;5035556;28;20056;-74
2022/11/24 14:51:09;;;;;;;1.23;0.80;;;;;;;;;;5041103;28;20057;-72
2022/11/24 14:53:36;;;;;;;1.17;0.95;;;;;;;;;;5039477;28;20042;-82
2022/11/24 14:56:20;;;;;;;2.00;0.90;;;;;;;;;;5035140;28;20060;-72
2022/11/24 14:58:46;;;;;;;1.58;1.05;;;;;;;;;;5042066;28;20461;-73
2022/11/24 15:01:27;;;;;;;3.10;1.05;;;;;;;;;;5038439;28;20053;-73
2022/11/24 15:04:19;;;;;;;2.28;1.00;;;;;;;;;;5034174;28;20053;-71
2022/11/24 15:06:48;;;;;;;2.17;1.10;;;;;;;;;;5017232;28;20623;-74
2022/11/24 15:09:39;;;;;;;1.23;0.90;;;;;;;;;;5029604;28;20053;-76